Time;durP1;ratioP1;P1;durP2;ratioP2;P2;SDS_P1;SDS_P2;PMS_P1;PMS_P2;Temp;Humidity;BMP_temperature;BMP_pressure;BME280_temperature;BME280_humidity;BME280_pressure;Samples;Min_cycle;Max_cycle;Signal;HPM_P1;HPM_P2
2023/06/30 00:01:51;;;;;;;7.93;6.05;;;21.00;99.90;;;;;;5051450;28;20029;-55
2023/06/30 00:04:17;;;;;;;8.52;5.32;;;21.00;99.90;;;;;;5050158;28;20025;-50
2023/06/30 00:06:44;;;;;;;8.82;6.22;;;21.00;99.90;;;;;;5050853;28;20082;-55
2023/06/30 00:09:10;;;;;;;10.52;5.82;;;21.10;99.90;;;;;;5051442;28;20025;-53
2023/06/30 00:11:38;;;;;;;12.82;6.00;;;21.10;99.90;;;;;;5051292;28;20067;-57
2023/06/30 00:14:04;;;;;;;8.23;5.90;;;21.20;99.90;;;;;;5050748;28;20025;-56
2023/06/30 00:16:31;;;;;;;8.10;6.45;;;21.20;99.90;;;;;;5050940;28;20104;-56
2023/06/30 00:18:57;;;;;;;10.38;6.03;;;21.00;99.90;;;;;;5051281;28;20104;-50
2023/06/30 00:21:23;;;;;;;8.75;6.65;;;20.90;99.90;;;;;;5051239;28;20021;-50
2023/06/30 00:23:48;;;;;;;10.18;6.57;;;20.80;99.90;;;;;;5051573;28;20086;-51
2023/06/30 00:26:14;;;;;;;12.65;7.03;;;20.80;99.90;;;;;;5050527;28;20021;-51
2023/06/30 00:28:39;;;;;;;10.60;6.53;;;20.80;99.90;;;;;;5051299;28;20025;-51
2023/06/30 00:31:05;;;;;;;11.77;6.75;;;20.80;99.90;;;;;;5051324;28;20103;-51
2023/06/30 00:33:30;;;;;;;11.70;5.93;;;20.80;99.90;;;;;;5051117;28;20036;-50
2023/06/30 00:35:56;;;;;;;9.18;6.10;;;20.80;99.90;;;;;;5050366;28;20153;-49
2023/06/30 00:38:21;;;;;;;9.10;6.50;;;20.80;99.90;;;;;;5051603;28;20108;-52
2023/06/30 00:40:47;;;;;;;10.57;7.03;;;20.70;99.90;;;;;;5051125;28;20036;-50
2023/06/30 00:43:13;;;;;;;9.88;6.65;;;20.80;99.90;;;;;;5051015;28;20500;-54
2023/06/30 00:45:38;;;;;;;12.48;6.95;;;20.80;99.90;;;;;;5050193;28;20029;-53
2023/06/30 00:48:04;;;;;;;11.15;6.72;;;20.70;99.90;;;;;;5050947;28;20024;-54
2023/06/30 00:50:30;;;;;;;8.57;7.05;;;20.70;99.90;;;;;;5051514;28;20103;-54
2023/06/30 00:52:56;;;;;;;12.80;8.35;;;20.60;99.90;;;;;;5051222;28;20234;-57
2023/06/30 00:55:24;;;;;;;9.18;6.97;;;20.60;99.90;;;;;;5053777;28;20029;-53
2023/06/30 00:57:49;;;;;;;11.48;8.75;;;20.60;99.90;;;;;;5054905;28;20021;-55
2023/06/30 01:00:15;;;;;;;12.38;8.85;;;20.60;99.90;;;;;;5054802;28;20495;-54
2023/06/30 01:03:01;;;;;;;14.40;8.35;;;20.70;99.90;;;;;;5054561;28;20087;-54
2023/06/30 01:05:35;;;;;;;9.68;7.45;;;20.70;99.90;;;;;;5052943;28;20100;-53
2023/06/30 01:08:42;;;;;;;10.63;7.45;;;20.60;99.90;;;;;;5054862;28;20037;-51
2023/06/30 01:11:09;;;;;;;11.18;8.02;;;20.60;99.90;;;;;;5054661;28;20055;-51
2023/06/30 01:13:35;;;;;;;10.38;7.10;;;20.50;99.90;;;;;;5054422;28;20017;-54
2023/06/30 01:16:04;;;;;;;12.02;7.18;;;20.50;99.90;;;;;;5053855;28;20633;-51
2023/06/30 01:18:32;;;;;;;9.63;7.72;;;20.50;99.90;;;;;;5036980;28;20400;-52
2023/06/30 01:20:59;;;;;;;10.90;7.55;;;20.50;99.90;;;;;;5054369;28;20027;-55
2023/06/30 01:23:37;;;;;;;14.05;7.65;;;20.60;99.90;;;;;;5054394;28;20017;-55
2023/06/30 01:26:04;;;;;;;11.10;7.38;;;20.50;99.90;;;;;;5035682;28;20025;-54
2023/06/30 01:28:33;;;;;;;10.18;7.30;;;20.50;99.90;;;;;;5036609;28;20043;-56
2023/06/30 01:30:59;;;;;;;11.00;7.72;;;20.50;99.90;;;;;;5054225;28;20013;-57
2023/06/30 01:33:26;;;;;;;11.13;7.28;;;20.50;99.90;;;;;;5054174;28;20025;-55
2023/06/30 01:35:52;;;;;;;7.72;6.60;;;20.50;99.90;;;;;;5053419;28;20108;-50
2023/06/30 01:38:18;;;;;;;13.98;7.38;;;20.50;99.90;;;;;;5054290;28;20419;-53
2023/06/30 01:40:45;;;;;;;8.13;6.20;;;20.50;99.90;;;;;;5054279;28;20029;-56
2023/06/30 01:43:12;;;;;;;8.05;6.55;;;20.60;99.90;;;;;;5054433;28;20060;-53
2023/06/30 01:45:39;;;;;;;11.23;6.72;;;20.70;99.90;;;;;;5053019;28;20096;-54
2023/06/30 01:48:05;;;;;;;9.50;6.20;;;20.60;99.90;;;;;;5054007;28;20044;-54
2023/06/30 01:50:31;;;;;;;10.10;6.75;;;20.60;99.90;;;;;;5054000;28;20029;-50
2023/06/30 01:52:58;;;;;;;7.07;5.82;;;20.60;99.90;;;;;;5054026;28;20021;-55
2023/06/30 01:55:23;;;;;;;10.63;6.13;;;20.60;99.90;;;;;;5053036;28;20079;-55
2023/06/30 01:57:49;;;;;;;11.35;6.85;;;20.70;99.90;;;;;;5053784;28;20401;-54
2023/06/30 02:00:14;;;;;;;9.48;6.05;;;20.80;99.90;;;;;;5036078;28;20021;-51
2023/06/30 02:02:41;;;;;;;8.15;6.65;;;20.90;99.90;;;;;;5053510;28;20172;-56
2023/06/30 02:05:07;;;;;;;9.60;6.53;;;20.90;99.90;;;;;;5051584;28;20021;-54
2023/06/30 02:07:32;;;;;;;9.88;6.28;;;20.90;99.90;;;;;;5053647;28;20088;-52
2023/06/30 02:09:58;;;;;;;10.57;6.43;;;20.80;99.90;;;;;;5035628;28;20036;-55
2023/06/30 02:12:23;;;;;;;9.93;6.55;;;20.80;99.90;;;;;;5035629;28;20144;-56
2023/06/30 02:14:49;;;;;;;10.43;6.00;;;20.80;99.90;;;;;;5052723;28;20029;-54
2023/06/30 02:17:14;;;;;;;8.98;6.50;;;20.80;99.90;;;;;;5053398;28;20166;-58
2023/06/30 02:19:40;;;;;;;8.95;6.25;;;20.80;99.90;;;;;;5053353;28;20067;-53
2023/06/30 02:22:06;;;;;;;9.85;6.40;;;20.80;99.90;;;;;;5053344;28;20162;-53
2023/06/30 02:24:31;;;;;;;13.57;6.60;;;20.70;99.90;;;;;;5052798;28;20025;-56
2023/06/30 02:26:57;;;;;;;8.32;5.82;;;20.70;99.90;;;;;;5052831;28;20029;-53
2023/06/30 02:29:22;;;;;;;11.70;6.18;;;20.60;99.90;;;;;;5053373;28;20036;-52
2023/06/30 02:31:48;;;;;;;8.23;5.97;;;20.60;99.90;;;;;;5053206;28;20025;-51
2023/06/30 02:34:13;;;;;;;9.10;6.18;;;20.60;99.90;;;;;;5052654;28;20515;-53
2023/06/30 02:36:39;;;;;;;10.98;6.50;;;20.60;99.90;;;;;;5052725;28;20099;-55
2023/06/30 02:39:04;;;;;;;8.65;5.90;;;20.60;99.90;;;;;;5052979;28;20029;-55
2023/06/30 02:41:30;;;;;;;10.55;6.13;;;20.60;99.90;;;;;;5052969;28;20501;-51
2023/06/30 02:43:55;;;;;;;10.00;6.45;;;20.60;99.90;;;;;;5052608;28;20033;-50
2023/06/30 02:46:21;;;;;;;9.57;6.50;;;20.50;99.90;;;;;;5052170;28;20056;-50
2023/06/30 02:48:46;;;;;;;8.15;6.13;;;20.60;99.90;;;;;;5052814;28;20108;-52
2023/06/30 02:51:12;;;;;;;13.30;6.25;;;20.60;99.90;;;;;;5052882;28;20025;-55
2023/06/30 02:53:38;;;;;;;7.85;6.03;;;20.50;99.90;;;;;;5052598;28;20112;-53
2023/06/30 02:56:03;;;;;;;10.05;5.68;;;20.60;99.90;;;;;;5051939;28;20622;-50
2023/06/30 02:58:29;;;;;;;9.32;6.03;;;20.50;99.90;;;;;;5052611;28;20029;-55
2023/06/30 03:00:55;;;;;;;9.60;6.82;;;20.60;99.90;;;;;;5052577;28;20033;-55
2023/06/30 03:03:20;;;;;;;10.57;5.60;;;20.50;99.90;;;;;;5052704;28;20033;-51
2023/06/30 03:05:46;;;;;;;9.75;6.03;;;20.50;99.90;;;;;;5050658;28;20074;-54
2023/06/30 03:08:11;;;;;;;8.82;5.78;;;20.50;99.90;;;;;;5052485;28;20109;-56
2023/06/30 03:10:37;;;;;;;9.27;6.35;;;20.40;99.90;;;;;;5052360;28;20017;-54
2023/06/30 03:13:03;;;;;;;7.95;5.65;;;20.40;99.90;;;;;;5052261;28;20104;-53
2023/06/30 03:15:28;;;;;;;10.98;5.53;;;20.50;99.90;;;;;;5051473;28;20449;-55
2023/06/30 03:17:55;;;;;;;10.00;6.55;;;20.50;99.90;;;;;;5051717;28;20036;-54
2023/06/30 03:20:20;;;;;;;7.68;6.15;;;20.50;99.90;;;;;;5052380;28;20052;-57
2023/06/30 03:22:46;;;;;;;11.02;7.53;;;20.50;99.90;;;;;;5052268;28;20025;-54
2023/06/30 03:25:12;;;;;;;9.88;7.13;;;20.50;99.90;;;;;;5051280;28;20071;-56
2023/06/30 03:27:37;;;;;;;14.02;8.02;;;20.40;99.90;;;;;;5052370;28;20031;-54
2023/06/30 03:30:04;;;;;;;12.45;7.97;;;20.30;99.90;;;;;;5052095;28;20566;-53
2023/06/30 03:32:30;;;;;;;11.77;7.97;;;20.30;99.90;;;;;;5052042;28;20021;-52
2023/06/30 03:34:56;;;;;;;13.57;8.93;;;20.20;99.90;;;;;;5051128;28;20021;-49
2023/06/30 03:37:21;;;;;;;14.85;9.50;;;20.20;99.90;;;;;;5051939;28;20033;-53
2023/06/30 03:39:47;;;;;;;13.82;10.77;;;20.20;99.90;;;;;;5051802;28;20064;-52
2023/06/30 03:42:12;;;;;;;14.50;10.65;;;20.20;99.90;;;;;;5051682;28;20453;-52
2023/06/30 03:44:38;;;;;;;16.92;10.38;;;20.30;99.90;;;;;;5051232;28;20158;-55
2023/06/30 03:47:03;;;;;;;17.65;11.35;;;20.20;99.90;;;;;;5051459;28;20017;-54
2023/06/30 03:49:29;;;;;;;19.50;11.90;;;20.20;99.90;;;;;;5051752;28;20539;-52
2023/06/30 03:51:55;;;;;;;17.38;10.80;;;20.40;99.90;;;;;;5051643;28;20550;-52
2023/06/30 03:54:20;;;;;;;24.35;12.23;;;20.50;99.90;;;;;;5051097;28;20039;-55
2023/06/30 03:56:47;;;;;;;17.30;11.10;;;20.50;99.90;;;;;;5051147;28;20111;-56
2023/06/30 03:59:12;;;;;;;18.40;11.15;;;20.50;99.90;;;;;;5051569;28;20025;-51
2023/06/30 04:01:40;;;;;;;24.08;11.95;;;20.50;99.90;;;;;;5051550;28;20031;-56
2023/06/30 04:04:06;;;;;;;17.98;11.75;;;20.70;99.90;;;;;;5050982;28;20162;-54
2023/06/30 04:06:33;;;;;;;15.25;11.18;;;20.70;99.90;;;;;;5050014;28;20106;-55
2023/06/30 04:08:59;;;;;;;17.42;9.73;;;20.70;99.90;;;;;;5051480;28;20017;-54
2023/06/30 04:11:25;;;;;;;15.88;10.38;;;20.60;99.90;;;;;;5051417;28;20021;-52
2023/06/30 04:13:50;;;;;;;16.60;11.05;;;20.50;99.90;;;;;;5051545;28;20115;-52
2023/06/30 04:16:17;;;;;;;13.00;8.07;;;20.50;99.90;;;;;;5050946;28;20378;-51
2023/06/30 04:18:43;;;;;;;14.68;8.95;;;20.60;99.90;;;;;;5051561;28;20025;-53
2023/06/30 04:21:09;;;;;;;12.32;7.57;;;20.60;99.90;;;;;;5033473;28;20051;-54
2023/06/30 04:23:36;;;;;;;11.55;6.70;;;20.50;99.90;;;;;;5051638;28;20025;-51
2023/06/30 04:26:01;;;;;;;10.20;7.53;;;20.40;99.90;;;;;;5050647;28;20021;-51
2023/06/30 04:28:27;;;;;;;10.15;7.57;;;20.30;99.90;;;;;;5054058;28;20028;-54
2023/06/30 04:30:52;;;;;;;13.90;8.13;;;20.20;99.90;;;;;;5055760;28;20021;-52
2023/06/30 04:33:18;;;;;;;12.13;8.68;;;20.20;99.90;;;;;;5055953;28;20031;-50
2023/06/30 04:35:43;;;;;;;17.00;7.90;;;20.20;99.90;;;;;;5054955;28;20434;-50
2023/06/30 04:38:09;;;;;;;12.73;8.55;;;20.20;99.90;;;;;;5055908;28;20100;-56
2023/06/30 04:40:35;;;;;;;11.77;9.55;;;20.10;99.90;;;;;;5055454;28;20037;-55
2023/06/30 04:43:01;;;;;;;15.15;8.65;;;20.00;99.90;;;;;;5055339;28;20029;-53
2023/06/30 04:45:26;;;;;;;10.07;7.85;;;20.00;99.90;;;;;;5054571;28;20547;-53
2023/06/30 04:47:52;;;;;;;17.23;11.20;;;20.00;99.90;;;;;;5055484;28;20033;-55
2023/06/30 04:50:17;;;;;;;18.73;13.35;;;20.00;99.90;;;;;;5055166;28;20429;-52
2023/06/30 04:52:43;;;;;;;24.08;14.30;;;20.10;99.90;;;;;;5055249;28;20070;-54
2023/06/30 04:55:09;;;;;;;23.08;14.95;;;20.10;99.90;;;;;;5054593;28;20032;-52
2023/06/30 04:57:34;;;;;;;22.52;13.38;;;20.10;99.90;;;;;;5054998;28;20447;-56
2023/06/30 05:00:00;;;;;;;24.90;15.38;;;20.10;99.90;;;;;;5055170;28;20025;-54
2023/06/30 05:02:26;;;;;;;19.27;14.07;;;20.10;99.90;;;;;;5054924;28;20021;-53
2023/06/30 05:04:51;;;;;;;18.63;12.85;;;20.20;99.90;;;;;;5053293;28;20033;-56
2023/06/30 05:07:17;;;;;;;22.15;14.38;;;20.30;99.90;;;;;;5054848;28;20029;-53
2023/06/30 05:09:42;;;;;;;21.88;13.13;;;20.40;99.90;;;;;;5054865;28;20044;-58
2023/06/30 05:12:08;;;;;;;20.23;13.00;;;20.30;99.90;;;;;;5054906;28;20379;-56
2023/06/30 05:14:33;;;;;;;16.05;12.27;;;20.30;99.90;;;;;;5081818;22;20455;-53
2023/06/30 05:16:59;;;;;;;17.88;11.98;;;20.40;99.90;;;;;;5094529;28;20402;-47
2023/06/30 05:19:24;;;;;;;16.42;11.30;;;20.40;99.90;;;;;;5094785;28;20452;-47
2023/06/30 05:21:52;;;;;;;15.88;11.30;;;20.60;99.90;;;;;;5094697;28;20035;-46
2023/06/30 05:24:17;;;;;;;19.08;14.57;;;20.70;99.90;;;;;;5075802;28;20025;-50
2023/06/30 05:26:43;;;;;;;27.98;18.42;;;20.80;99.90;;;;;;5094154;28;20027;-49
2023/06/30 05:29:09;;;;;;;24.70;18.77;;;20.80;99.90;;;;;;5094670;28;20028;-50
2023/06/30 05:31:35;;;;;;;32.20;21.20;;;20.80;99.90;;;;;;5094617;28;20107;-49
2023/06/30 05:34:01;;;;;;;32.30;22.65;;;20.90;99.90;;;;;;5076340;28;20095;-46
2023/06/30 05:36:28;;;;;;;40.15;26.92;;;20.90;99.90;;;;;;5076080;28;20028;-47
2023/06/30 05:38:53;;;;;;;39.03;26.08;;;20.90;99.90;;;;;;5076081;28;20024;-53
2023/06/30 05:41:19;;;;;;;49.80;28.52;;;20.90;99.90;;;;;;5094254;28;20043;-50
2023/06/30 05:43:44;;;;;;;42.97;28.23;;;20.70;99.90;;;;;;5094215;28;20515;-45
2023/06/30 05:46:10;;;;;;;47.75;29.63;;;20.70;99.90;;;;;;5093392;28;20047;-49
2023/06/30 05:48:35;;;;;;;52.35;31.00;;;20.60;99.90;;;;;;5094079;28;20039;-47
2023/06/30 05:51:01;;;;;;;42.40;30.23;;;20.70;99.90;;;;;;5094009;28;20081;-47
2023/06/30 05:53:26;;;;;;;52.38;31.67;;;20.70;99.90;;;;;;5094075;28;20199;-50
2023/06/30 05:55:52;;;;;;;46.70;31.92;;;20.70;99.90;;;;;;5093129;28;20464;-51
2023/06/30 05:58:17;;;;;;;47.97;31.15;;;20.70;99.90;;;;;;5094095;28;20023;-47
2023/06/30 06:00:43;;;;;;;51.00;32.45;;;20.70;99.90;;;;;;5093914;28;20055;-50
2023/06/30 06:03:08;;;;;;;50.40;33.03;;;20.70;99.90;;;;;;5075761;28;20412;-47
2023/06/30 06:05:34;;;;;;;47.60;31.02;;;20.70;99.90;;;;;;5073867;28;20043;-50
2023/06/30 06:07:59;;;;;;;50.67;32.22;;;20.80;99.90;;;;;;5093972;28;20024;-49
2023/06/30 06:10:25;;;;;;;54.17;34.22;;;20.80;99.90;;;;;;5093731;28;20028;-48
2023/06/30 06:12:53;;;;;;;48.65;30.98;;;20.80;99.90;;;;;;5093652;28;20032;-47
2023/06/30 06:15:19;;;;;;;49.38;31.05;;;20.80;99.90;;;;;;5074635;28;20097;-49
2023/06/30 06:17:45;;;;;;;43.78;29.58;;;20.80;99.90;;;;;;5093995;28;20476;-46
2023/06/30 06:20:10;;;;;;;39.95;27.33;;;20.80;99.90;;;;;;5093643;28;20479;-46
2023/06/30 06:22:36;;;;;;;39.78;26.55;;;20.80;99.90;;;;;;5093480;28;20024;-46
2023/06/30 06:25:01;;;;;;;46.03;27.95;;;20.80;99.90;;;;;;5092770;28;20070;-49
2023/06/30 06:27:28;;;;;;;42.60;28.48;;;20.80;99.90;;;;;;5093583;28;20388;-46
2023/06/30 06:29:54;;;;;;;40.17;26.55;;;20.90;99.90;;;;;;5093630;28;20031;-51
2023/06/30 06:32:19;;;;;;;42.47;27.00;;;21.00;99.90;;;;;;5093295;28;20400;-52
2023/06/30 06:34:45;;;;;;;42.97;25.70;;;21.00;99.90;;;;;;5093115;28;20035;-52
2023/06/30 06:37:11;;;;;;;37.95;24.88;;;21.00;99.90;;;;;;5093091;28;20027;-47
2023/06/30 06:39:36;;;;;;;33.53;23.08;;;21.00;99.90;;;;;;5075194;28;20024;-49
2023/06/30 06:42:02;;;;;;;36.40;23.45;;;21.00;99.90;;;;;;5093268;28;20024;-51
2023/06/30 06:44:28;;;;;;;28.92;19.80;;;21.10;99.90;;;;;;5092361;28;20032;-53
2023/06/30 06:47:32;;;;;;;22.40;14.45;;;21.20;99.90;;;;;;5092901;28;20024;-46
2023/06/30 06:49:59;;;;;;;16.15;10.98;;;21.20;99.90;;;;;;5092940;28;20420;-50
2023/06/30 06:52:24;;;;;;;15.30;10.57;;;21.30;99.90;;;;;;5092173;28;20498;-48
2023/06/30 06:54:50;;;;;;;12.90;8.68;;;21.30;99.90;;;;;;5092513;28;20032;-50
2023/06/30 06:57:15;;;;;;;12.10;9.27;;;21.30;99.90;;;;;;5092551;28;20035;-52
2023/06/30 06:59:41;;;;;;;11.98;8.98;;;21.30;99.90;;;;;;5092795;28;20028;-46
2023/06/30 07:02:06;;;;;;;12.55;8.90;;;21.30;99.90;;;;;;5093121;28;20028;-46
2023/06/30 07:04:32;;;;;;;14.52;7.55;;;21.40;99.90;;;;;;5092530;28;20024;-47
2023/06/30 07:06:57;;;;;;;11.25;7.35;;;21.10;99.90;;;;;;5092544;28;20041;-47
2023/06/30 07:09:23;;;;;;;10.18;7.05;;;21.00;99.90;;;;;;5074562;28;20451;-49
2023/06/30 07:11:48;;;;;;;11.32;6.18;;;20.90;99.90;;;;;;5092873;28;20112;-50
2023/06/30 07:14:14;;;;;;;6.80;5.97;;;20.80;99.90;;;;;;5092316;28;20055;-49
2023/06/30 07:16:39;;;;;;;7.80;5.70;;;20.70;99.90;;;;;;5092241;28;20031;-48
2023/06/30 07:19:05;;;;;;;7.60;4.97;;;20.80;99.90;;;;;;5074393;28;20028;-45
2023/06/30 07:21:31;;;;;;;15.15;5.93;;;20.70;99.90;;;;;;5092173;28;20482;-48
2023/06/30 07:23:57;;;;;;;6.55;4.72;;;20.80;99.90;;;;;;5092206;28;20081;-46
2023/06/30 07:26:22;;;;;;;8.75;5.93;;;21.00;99.90;;;;;;5091473;28;20031;-46
2023/06/30 07:28:48;;;;;;;11.38;7.15;;;21.10;99.90;;;;;;5092443;28;20107;-48
2023/06/30 07:31:13;;;;;;;6.45;5.30;;;21.20;99.90;;;;;;5092506;28;20020;-48
2023/06/30 07:33:39;;;;;;;4.65;3.72;;;21.30;99.90;;;;;;5073863;28;20024;-48
2023/06/30 07:36:05;;;;;;;5.22;3.45;;;21.50;99.90;;;;;;5091252;28;20403;-46
2023/06/30 07:38:31;;;;;;;6.07;3.10;;;21.60;99.90;;;;;;5092075;28;20024;-51
2023/06/30 07:40:56;;;;;;;3.97;2.97;;;21.60;99.90;;;;;;5092074;28;20028;-51
2023/06/30 07:43:22;;;;;;;3.38;3.08;;;21.70;99.90;;;;;;5091979;28;20110;-50
2023/06/30 07:45:47;;;;;;;2.20;2.00;;;21.90;99.90;;;;;;5091163;28;20053;-48
2023/06/30 07:48:13;;;;;;;3.22;2.22;;;22.10;99.90;;;;;;5091868;28;20169;-47
2023/06/30 07:50:38;;;;;;;2.38;2.25;;;22.00;99.90;;;;;;5091842;28;20048;-50
2023/06/30 07:53:08;;;;;;;2.35;2.15;;;21.90;99.90;;;;;;5091814;28;20516;-51
2023/06/30 07:55:33;;;;;;;2.03;1.92;;;21.80;99.90;;;;;;5090895;28;20194;-52
2023/06/30 07:57:59;;;;;;;2.85;2.65;;;21.70;99.90;;;;;;5091788;28;20107;-50
2023/06/30 08:00:28;;;;;;;2.65;2.40;;;21.60;99.90;;;;;;5091552;28;20488;-46
2023/06/30 08:02:54;;;;;;;3.38;2.63;;;21.50;99.90;;;;;;5091445;28;20028;-50
2023/06/30 08:05:20;;;;;;;2.78;2.42;;;21.30;99.90;;;;;;5090039;28;20169;-49
2023/06/30 08:07:46;;;;;;;2.72;2.53;;;21.20;99.90;;;;;;5091621;28;20064;-46
2023/06/30 08:10:12;;;;;;;2.78;2.58;;;21.00;99.90;;;;;;5091634;28;20044;-48
2023/06/30 08:12:38;;;;;;;2.65;2.42;;;20.90;99.90;;;;;;5091581;28;20056;-50
2023/06/30 08:15:04;;;;;;;2.25;2.10;;;20.90;99.90;;;;;;5072621;28;20032;-53
2023/06/30 08:17:29;;;;;;;3.00;2.38;;;20.80;99.90;;;;;;5084106;28;20028;-52
2023/06/30 08:19:55;;;;;;;3.25;2.70;;;20.80;99.90;;;;;;5073256;28;20077;-51
2023/06/30 08:22:21;;;;;;;4.10;2.42;;;20.80;99.90;;;;;;5091562;28;20020;-48
2023/06/30 08:24:47;;;;;;;1.85;1.75;;;20.80;99.90;;;;;;5072744;28;20028;-50
2023/06/30 08:27:13;;;;;;;9.05;7.70;;;20.70;99.90;;;;;;5073073;28;20065;-48
2023/06/30 08:29:39;;;;;;;6.25;3.47;;;20.70;99.90;;;;;;5076302;28;20025;-52
2023/06/30 08:32:05;;;;;;;2.47;2.28;;;20.60;99.90;;;;;;5075095;28;20016;-45
2023/06/30 08:34:31;;;;;;;3.03;2.28;;;20.60;99.90;;;;;;5091492;28;20025;-51
2023/06/30 08:36:56;;;;;;;3.88;1.50;;;20.50;99.90;;;;;;5091439;28;20024;-48
2023/06/30 08:39:23;;;;;;;1.98;1.88;;;20.40;99.90;;;;;;5084869;28;20039;-47
2023/06/30 08:41:52;;;;;;;3.55;1.48;;;20.30;99.90;;;;;;5053869;28;20195;-45
2023/06/30 08:44:22;;;;;;;1.85;1.75;;;20.30;99.90;;;;;;5073337;28;20123;-50
2023/06/30 08:46:48;;;;;;;1.98;1.88;;;20.20;99.90;;;;;;5110328;28;20107;-45
2023/06/30 08:49:14;;;;;;;1.50;1.40;;;20.00;99.90;;;;;;5111825;28;20510;-50
2023/06/30 08:51:40;;;;;;;1.20;1.20;;;19.90;99.90;;;;;;5111730;28;20034;-48
2023/06/30 08:54:07;;;;;;;1.63;1.52;;;19.90;99.90;;;;;;5093186;28;20470;-51
2023/06/30 08:56:35;;;;;;;1.90;1.05;;;19.90;99.90;;;;;;5102737;28;20016;-46
2023/06/30 08:59:01;;;;;;;5.32;1.55;;;19.80;99.90;;;;;;5073701;28;20406;-48
2023/06/30 09:01:27;;;;;;;4.88;1.67;;;19.80;99.90;;;;;;5073711;28;20039;-48
2023/06/30 09:03:53;;;;;;;3.88;1.40;;;19.80;99.90;;;;;;5091567;28;20032;-48
2023/06/30 09:06:19;;;;;;;1.40;1.30;;;19.90;99.90;;;;;;5090333;28;20024;-46
2023/06/30 09:08:53;;;;;;;1.48;1.38;;;19.80;99.90;;;;;;5091132;28;20031;-52
2023/06/30 09:11:23;;;;;;;2.13;1.30;;;19.90;99.90;;;;;;5089951;28;20045;-45
2023/06/30 09:13:51;;;;;;;2.25;1.45;;;19.90;99.90;;;;;;5089405;28;20035;-46
2023/06/30 09:16:17;;;;;;;1.40;1.40;;;19.90;99.90;;;;;;5093461;28;20028;-48
2023/06/30 09:18:45;;;;;;;3.05;1.55;;;19.90;99.90;;;;;;5094535;28;20035;-49
2023/06/30 09:21:11;;;;;;;2.33;2.13;;;19.90;99.90;;;;;;5095119;28;20510;-50
2023/06/30 09:23:38;;;;;;;1.17;1.17;;;20.00;99.90;;;;;;5095150;28;20028;-52
2023/06/30 09:26:12;;;;;;;1.23;1.23;;;19.90;99.90;;;;;;5093961;28;20095;-49
2023/06/30 09:28:39;;;;;;;1.63;1.52;;;19.90;99.90;;;;;;5090507;28;20024;-45
2023/06/30 09:31:05;;;;;;;2.22;1.50;;;19.90;99.90;;;;;;5082776;28;20035;-47
2023/06/30 09:33:34;;;;;;;1.40;1.30;;;20.00;99.90;;;;;;5092865;28;20491;-45
2023/06/30 09:36:00;;;;;;;1.70;1.60;;;19.90;99.90;;;;;;5075248;28;20070;-51
2023/06/30 09:38:28;;;;;;;2.50;1.48;;;20.00;99.90;;;;;;5094710;28;20457;-51
2023/06/30 09:40:54;;;;;;;1.70;1.23;;;19.90;99.90;;;;;;5075958;28;20089;-50
2023/06/30 09:43:21;;;;;;;1.50;1.40;;;19.90;99.90;;;;;;5093584;28;20032;-49
2023/06/30 09:45:57;;;;;;;3.03;1.38;;;19.90;99.90;;;;;;5079903;28;20025;-50
2023/06/30 09:48:38;;;;;;;1.95;1.38;;;19.90;99.90;;;;;;5093026;28;20020;-48
2023/06/30 09:51:04;;;;;;;1.42;1.10;;;19.90;99.90;;;;;;5089766;28;20024;-54
2023/06/30 09:53:40;;;;;;;0.95;0.95;;;20.00;99.90;;;;;;5093644;28;20031;-54
2023/06/30 09:56:07;;;;;;;3.33;1.50;;;20.10;99.90;;;;;;5093091;28;20395;-53
2023/06/30 09:58:33;;;;;;;1.30;1.20;;;20.20;99.90;;;;;;5089255;28;20479;-50
2023/06/30 10:00:59;;;;;;;1.15;1.15;;;20.30;99.90;;;;;;5080779;28;20034;-52
2023/06/30 10:03:24;;;;;;;1.65;1.23;;;20.30;99.90;;;;;;5094555;28;20028;-52
2023/06/30 10:05:52;;;;;;;1.30;1.20;;;20.40;99.90;;;;;;5093219;28;20031;-50
2023/06/30 10:08:21;;;;;;;3.03;1.15;;;20.50;99.90;;;;;;5076297;28;20483;-52
2023/06/30 10:10:51;;;;;;;1.00;1.00;;;20.50;99.90;;;;;;5093858;28;20024;-49
2023/06/30 10:13:17;;;;;;;1.10;1.10;;;20.50;99.90;;;;;;5075585;28;20399;-45
2023/06/30 10:15:44;;;;;;;3.03;1.35;;;20.50;99.90;;;;;;5092808;28;20039;-48
2023/06/30 10:18:11;;;;;;;2.45;1.08;;;20.60;99.90;;;;;;5076202;28;20028;-48
2023/06/30 10:20:36;;;;;;;2.15;1.00;;;20.60;99.90;;;;;;5093744;28;20430;-53
2023/06/30 10:23:04;;;;;;;2.45;2.25;;;20.70;99.90;;;;;;5094147;28;20036;-48
2023/06/30 10:25:31;;;;;;;4.25;2.20;;;20.80;99.90;;;;;;5092398;28;20028;-51
2023/06/30 10:27:57;;;;;;;3.00;1.10;;;20.80;99.90;;;;;;5088748;28;20036;-51
2023/06/30 10:30:23;;;;;;;1.27;1.17;;;20.70;99.90;;;;;;5091764;28;20024;-50
2023/06/30 10:32:48;;;;;;;0.90;0.90;;;20.70;99.90;;;;;;5093008;28;20063;-52
2023/06/30 10:35:15;;;;;;;1.33;1.23;;;20.70;99.90;;;;;;5074664;28;20052;-51
2023/06/30 10:37:42;;;;;;;1.20;1.10;;;20.60;99.90;;;;;;5087284;28;20026;-50
2023/06/30 10:40:26;;;;;;;3.63;1.70;;;20.60;99.90;;;;;;5093009;28;20491;-48
2023/06/30 10:42:54;;;;;;;1.80;1.50;;;20.60;99.90;;;;;;5081885;28;20032;-48
2023/06/30 10:45:20;;;;;;;7.28;1.25;;;20.60;99.90;;;;;;5092860;28;20023;-45
2023/06/30 10:47:51;;;;;;;1.65;1.40;;;20.50;99.90;;;;;;5093109;28;20020;-46
2023/06/30 10:50:17;;;;;;;2.20;1.40;;;20.30;99.90;;;;;;5092951;28;20081;-44
2023/06/30 10:52:53;;;;;;;5.28;1.90;;;20.30;99.90;;;;;;5092901;28;20081;-43
2023/06/30 10:55:26;;;;;;;3.15;1.48;;;20.30;99.90;;;;;;5092163;28;20035;-44
2023/06/30 10:57:53;;;;;;;1.45;1.35;;;20.20;99.90;;;;;;5091496;28;20085;-51
2023/06/30 11:00:21;;;;;;;4.88;1.48;;;20.20;99.90;;;;;;5054875;28;20020;-45
2023/06/30 11:02:48;;;;;;;5.18;1.88;;;20.10;99.90;;;;;;5071313;28;20025;-44
2023/06/30 11:05:24;;;;;;;2.00;1.80;;;20.10;99.90;;;;;;5080745;28;20500;-47
2023/06/30 11:08:09;;;;;;;4.43;1.60;;;20.10;99.90;;;;;;5091342;28;20522;-43
2023/06/30 11:10:46;;;;;;;3.10;1.75;;;20.00;99.90;;;;;;5080720;28;20031;-45
2023/06/30 11:13:13;;;;;;;3.28;2.20;;;20.00;99.90;;;;;;5091007;28;20124;-48
2023/06/30 11:15:47;;;;;;;3.13;1.80;;;20.10;99.90;;;;;;5112410;22;20039;-55
2023/06/30 11:18:23;;;;;;;5.15;2.65;;;20.00;99.90;;;;;;5109708;28;20027;-57
2023/06/30 11:21:02;;;;;;;2.63;1.98;;;20.10;99.90;;;;;;5094305;28;20038;-55
2023/06/30 11:23:32;;;;;;;3.03;1.63;;;20.20;99.90;;;;;;5112322;28;20035;-55
2023/06/30 11:25:58;;;;;;;3.38;2.00;;;20.30;99.90;;;;;;5112322;28;20020;-56
2023/06/30 11:28:25;;;;;;;4.57;1.90;;;20.30;99.90;;;;;;5112635;28;20051;-57
2023/06/30 11:30:51;;;;;;;2.42;1.70;;;20.50;99.90;;;;;;5112667;28;20064;-58
2023/06/30 11:33:18;;;;;;;2.15;1.80;;;20.50;99.90;;;;;;5108944;28;20028;-59
2023/06/30 11:35:49;;;;;;;3.63;2.60;;;20.60;99.90;;;;;;5091094;28;20020;-58
2023/06/30 11:38:14;;;;;;;4.25;1.90;;;20.60;99.90;;;;;;5108540;28;20039;-56
2023/06/30 11:40:50;;;;;;;2.95;2.25;;;20.70;99.90;;;;;;5107736;28;20019;-59
2023/06/30 11:43:16;;;;;;;;;;;20.80;99.90;;;;;;5109099;28;20024;-52
2023/06/30 11:45:42;;;;;;;2.67;2.15;;;20.80;99.90;;;;;;5111112;28;20062;-56
2023/06/30 11:48:07;;;;;;;1.88;1.77;;;20.70;99.90;;;;;;5112465;28;20045;-57
2023/06/30 11:50:33;;;;;;;7.70;1.77;;;20.80;99.90;;;;;;5106085;28;20508;-53
2023/06/30 11:53:01;;;;;;;3.22;1.75;;;21.00;99.90;;;;;;5092011;28;20099;-55
2023/06/30 11:55:28;;;;;;;3.25;1.80;;;21.30;99.90;;;;;;5102379;28;20026;-53
2023/06/30 11:57:54;;;;;;;2.25;1.98;;;21.50;99.90;;;;;;5112338;28;20016;-53
2023/06/30 12:00:21;;;;;;;4.50;2.40;;;21.80;99.90;;;;;;5111793;28;20024;-57
2023/06/30 12:02:48;;;;;;;2.13;1.88;;;21.90;99.90;;;;;;5112034;28;20024;-57
2023/06/30 12:05:16;;;;;;;4.72;2.45;;;21.80;99.90;;;;;;5111145;28;20490;-53
2023/06/30 12:07:44;;;;;;;4.93;1.83;;;21.50;99.90;;;;;;5112007;28;20027;-54
2023/06/30 12:10:10;;;;;;;1.95;1.63;;;21.40;99.90;;;;;;5111980;28;20058;-54
2023/06/30 12:12:37;;;;;;;1.70;1.60;;;21.50;99.90;;;;;;5111923;28;20028;-56
2023/06/30 12:15:04;;;;;;;2.45;2.15;;;21.60;99.90;;;;;;5110908;28;20127;-53
2023/06/30 12:17:33;;;;;;;2.70;1.50;;;21.80;99.90;;;;;;5112075;28;20103;-57
2023/06/30 12:19:58;;;;;;;3.75;1.60;;;21.90;99.90;;;;;;5112175;28;20168;-57
2023/06/30 12:22:27;;;;;;;2.35;2.15;;;21.80;99.90;;;;;;5112175;28;20065;-55
2023/06/30 12:24:57;;;;;;;5.95;1.50;;;21.90;99.90;;;;;;5111513;28;20103;-57
2023/06/30 12:27:26;;;;;;;2.83;1.40;;;22.20;99.90;;;;;;5112011;28;20020;-54
2023/06/30 12:29:52;;;;;;;1.98;1.25;;;22.30;99.90;;;;;;5111839;28;20070;-53
2023/06/30 12:32:18;;;;;;;2.05;1.20;;;22.40;99.90;;;;;;5111782;28;20431;-53
2023/06/30 12:34:45;;;;;;;1.67;1.20;;;22.40;99.90;;;;;;5111425;28;20047;-57
2023/06/30 12:37:11;;;;;;;3.13;2.33;;;22.30;99.90;;;;;;5093159;28;20061;-54
2023/06/30 12:39:37;;;;;;;2.00;1.80;;;22.40;99.90;;;;;;5111904;28;20480;-54